createdAt,value
2018-02-24T00:00:18.857Z,36.03
2018-02-24T00:02:46.389Z,37.53
2018-02-24T00:05:14.002Z,31.40
2018-02-24T00:07:42.302Z,33.30
2018-02-24T00:10:09.830Z,39.30
2018-02-24T00:12:37.427Z,36.60
2018-02-24T00:15:05.781Z,40.50
2018-02-24T00:17:33.359Z,30.97
2018-02-24T00:20:00.894Z,33.27
2018-02-24T00:22:29.252Z,40.07
2018-02-24T00:24:57.558Z,35.90
2018-02-24T00:27:25.141Z,41.07
2018-02-24T00:29:52.683Z,37.80
2018-02-24T00:32:20.973Z,41.17
2018-02-24T00:34:49.305Z,34.07
2018-02-24T00:37:16.858Z,36.07
2018-02-24T00:39:44.378Z,35.77
2018-02-24T00:42:11.931Z,31.07
2018-02-24T00:44:39.454Z,37.87
2018-02-24T00:47:07.012Z,36.10
2018-02-24T00:49:35.309Z,33.93
2018-02-24T00:52:07.472Z,32.30
2018-02-24T00:54:35.004Z,33.13
2018-02-24T00:57:02.556Z,36.60
2018-02-24T00:59:30.087Z,38.53
2018-02-24T01:01:57.642Z,31.67
2018-02-24T01:04:25.170Z,39.20
2018-02-24T01:06:52.742Z,35.40
2018-02-24T01:09:20.256Z,34.53
2018-02-24T01:11:48.568Z,30.30
2018-02-24T01:14:16.838Z,34.43
2018-02-24T01:16:44.426Z,31.90
2018-02-24T01:19:11.987Z,41.17
2018-02-24T01:24:50.493Z,31.70
2018-02-24T01:27:18.013Z,34.07
2018-02-24T01:29:45.520Z,36.90
2018-02-24T01:32:13.117Z,26.13
2018-02-24T01:34:40.624Z,30.17
2018-02-24T01:37:08.147Z,32.37
2018-02-24T01:39:35.693Z,33.60
2018-02-24T01:42:04.028Z,28.83
2018-02-24T01:44:31.541Z,30.33
2018-02-24T01:46:59.090Z,31.90
2018-02-24T01:49:26.690Z,34.43
2018-02-24T01:51:57.983Z,38.33
2018-02-24T01:54:25.509Z,31.47
2018-02-24T01:57:07.047Z,37.27
2018-02-24T01:59:34.589Z,33.37
2018-02-24T02:02:02.389Z,33.67
2018-02-24T02:04:30.687Z,30.53
2018-02-24T02:06:58.246Z,31.07
2018-02-24T02:09:26.545Z,31.17
2018-02-24T02:11:54.068Z,31.80
2018-02-24T02:14:21.614Z,34.13
2018-02-24T02:16:49.145Z,30.73
2018-02-24T02:19:16.714Z,30.03
2018-02-24T02:21:44.989Z,30.27
2018-02-24T02:24:12.546Z,33.43
2018-02-24T02:26:40.107Z,29.07
2018-02-24T02:29:07.662Z,31.20
2018-02-24T02:31:35.180Z,30.97
2018-02-24T02:34:09.176Z,31.30
2018-02-24T02:36:42.097Z,32.93
2018-02-24T02:39:15.039Z,35.37
2018-02-24T02:41:42.553Z,28.97
2018-02-24T02:44:10.104Z,29.23
2018-02-24T02:46:37.607Z,34.93
2018-02-24T02:49:05.141Z,30.47
2018-02-24T02:51:32.668Z,32.57
2018-02-24T02:54:00.201Z,28.70
2018-02-24T02:56:27.726Z,28.93
2018-02-24T02:58:55.337Z,36.07
2018-02-24T03:01:22.883Z,28.90
2018-02-24T03:03:52.468Z,29.20
2018-02-24T03:06:20.794Z,30.60
2018-02-24T03:08:48.338Z,36.90
2018-02-24T03:11:15.857Z,32.20
2018-02-24T03:13:43.385Z,29.23
2018-02-24T03:16:10.912Z,29.17
2018-02-24T03:18:38.455Z,31.43
2018-02-24T03:21:05.975Z,36.03
2018-02-24T03:23:34.293Z,34.30
2018-02-24T03:26:01.798Z,34.70
2018-02-24T03:28:29.325Z,32.30
2018-02-24T03:30:57.599Z,31.57
2018-02-24T03:33:25.883Z,30.83
2018-02-24T03:35:54.164Z,28.90
2018-02-24T03:38:21.691Z,34.00
2018-02-24T03:40:49.196Z,29.40
2018-02-24T03:43:16.712Z,36.40
2018-02-24T03:45:44.766Z,35.50
2018-02-24T03:48:13.053Z,37.23
2018-02-24T03:50:41.323Z,31.40
2018-02-24T03:53:08.857Z,32.53
2018-02-24T03:55:36.348Z,37.27
2018-02-24T03:58:03.872Z,36.43
2018-02-24T04:00:43.990Z,33.27
2018-02-24T04:03:11.523Z,33.43
2018-02-24T04:05:39.023Z,33.00
2018-02-24T04:08:06.537Z,28.77
2018-02-24T04:10:34.849Z,29.17
2018-02-24T04:13:02.372Z,33.60
2018-02-24T04:15:29.905Z,35.67
2018-02-24T04:17:57.441Z,31.53
2018-02-24T04:20:25.737Z,29.13
2018-02-24T04:22:54.023Z,26.17
2018-02-24T04:25:22.292Z,36.73
2018-02-24T04:27:49.824Z,25.80
2018-02-24T04:30:17.312Z,29.23
2018-02-24T04:32:44.840Z,29.47
2018-02-24T04:35:12.335Z,34.03
2018-02-24T04:37:39.851Z,35.83
2018-02-24T04:40:07.365Z,31.30
2018-02-24T04:42:34.896Z,30.80
2018-02-24T04:45:02.383Z,32.17
2018-02-24T04:47:29.905Z,32.50
2018-02-24T04:49:57.430Z,36.43
2018-02-24T04:52:24.931Z,32.73
2018-02-24T04:54:52.450Z,41.70
2018-02-24T04:57:20.719Z,27.20
2018-02-24T04:59:49.843Z,33.63
2018-02-24T05:02:17.353Z,35.23
2018-02-24T05:04:44.876Z,29.50
2018-02-24T05:07:12.797Z,33.50
2018-02-24T05:09:40.312Z,33.57
2018-02-24T05:12:07.815Z,33.27
2018-02-24T05:14:36.100Z,33.57
2018-02-24T05:17:03.600Z,40.33
2018-02-24T05:19:31.107Z,36.13
2018-02-24T05:21:58.595Z,37.03
2018-02-24T05:24:26.111Z,33.60
2018-02-24T05:26:53.619Z,37.30
2018-02-24T05:29:21.122Z,32.77
2018-02-24T05:31:49.373Z,32.50
2018-02-24T05:34:16.928Z,34.70
2018-02-24T05:36:44.420Z,33.13
2018-02-24T05:39:11.927Z,38.57
2018-02-24T05:41:40.182Z,31.43
2018-02-24T05:44:07.700Z,37.13
2018-02-24T05:46:35.194Z,33.13
2018-02-24T05:49:02.709Z,31.03
2018-02-24T05:51:40.351Z,29.73
2018-02-24T05:54:07.868Z,34.00
2018-02-24T05:56:35.357Z,37.50
2018-02-24T05:59:02.872Z,39.30
2018-02-24T06:01:30.362Z,33.60
2018-02-24T06:03:57.868Z,37.43
2018-02-24T06:06:25.364Z,36.70
2018-02-24T06:08:53.648Z,41.90
2018-02-24T06:11:21.924Z,38.20
2018-02-24T06:13:49.437Z,36.83
2018-02-24T06:16:16.927Z,37.57
2018-02-24T06:18:44.446Z,37.70
2018-02-24T06:21:12.719Z,32.30
2018-02-24T06:23:40.237Z,35.10
2018-02-24T06:26:07.731Z,43.03
2018-02-24T06:28:35.244Z,46.00
2018-02-24T06:31:22.272Z,43.50
2018-02-24T06:33:51.563Z,35.40
2018-02-24T06:36:19.063Z,38.80
2018-02-24T06:38:47.361Z,33.93
2018-02-24T06:41:14.859Z,42.30
2018-02-24T06:43:42.388Z,39.43
2018-02-24T06:46:10.653Z,39.97
2018-02-24T06:48:38.175Z,33.87
2018-02-24T06:51:05.664Z,35.30
2018-02-24T06:53:33.162Z,47.80
2018-02-24T06:56:00.675Z,37.70
2018-02-24T06:58:28.176Z,38.83
2018-02-24T07:00:55.691Z,44.17
2018-02-24T07:03:23.196Z,43.63
2018-02-24T07:05:50.723Z,39.87
2018-02-24T07:08:18.220Z,36.87
2018-02-24T07:10:45.744Z,41.67
2018-02-24T07:13:13.232Z,35.67
2018-02-24T07:15:40.748Z,45.03
2018-02-24T07:18:08.235Z,36.70
2018-02-24T07:20:35.759Z,33.50
2018-02-24T07:23:04.027Z,39.90
2018-02-24T07:25:31.535Z,37.23
2018-02-24T07:27:59.047Z,39.40
2018-02-24T07:30:26.562Z,37.47
2018-02-24T07:32:54.818Z,44.20
2018-02-24T07:35:22.332Z,34.13
2018-02-24T07:37:50.591Z,37.17
2018-02-24T07:40:18.111Z,37.50
2018-02-24T07:42:45.617Z,33.63
2018-02-24T07:45:13.927Z,39.00
2018-02-24T07:47:41.415Z,31.87
2018-02-24T07:50:09.691Z,41.30
2018-02-24T07:52:49.784Z,32.63
2018-02-24T07:55:17.300Z,33.50
2018-02-24T07:57:44.808Z,35.97
2018-02-24T08:00:12.320Z,35.37
2018-02-24T08:02:39.808Z,31.33
2018-02-24T08:05:07.307Z,33.97
2018-02-24T08:07:35.568Z,36.00
2018-02-24T08:10:03.073Z,32.93
2018-02-24T08:12:31.319Z,35.73
2018-02-24T08:14:58.836Z,34.50
2018-02-24T08:17:27.083Z,33.07
2018-02-24T08:19:54.583Z,30.10
2018-02-24T08:22:22.068Z,27.53
2018-02-24T08:24:50.346Z,29.30
2018-02-24T08:27:18.603Z,36.50
2018-02-24T08:29:46.104Z,31.60
2018-02-24T08:32:14.359Z,31.80
2018-02-24T08:34:41.863Z,30.83
2018-02-24T08:37:10.108Z,32.53
2018-02-24T08:39:37.620Z,31.63
2018-02-24T08:42:05.115Z,29.00
2018-02-24T08:44:32.619Z,28.77
2018-02-24T08:47:00.113Z,29.40
2018-02-24T08:49:27.615Z,28.73
2018-02-24T08:51:55.861Z,31.60
2018-02-24T08:54:23.358Z,32.70
2018-02-24T08:56:51.607Z,27.63
2018-02-24T08:59:19.203Z,25.97
2018-02-24T09:01:46.691Z,26.47
2018-02-24T09:04:14.969Z,30.53
2018-02-24T09:06:43.228Z,30.33
2018-02-24T09:09:10.721Z,28.80
2018-02-24T09:11:39.204Z,25.57
2018-02-24T09:14:19.516Z,25.20
2018-02-24T09:16:47.031Z,25.57
2018-02-24T09:19:14.520Z,26.07
2018-02-24T09:21:42.023Z,24.70
2018-02-24T09:24:10.275Z,24.57
2018-02-24T09:26:37.790Z,23.67
2018-02-24T09:29:05.270Z,23.37
2018-02-24T09:31:32.780Z,21.20
2018-02-24T09:34:00.297Z,23.90
2018-02-24T09:36:28.569Z,22.70
2018-02-24T09:42:14.003Z,19.17
2018-02-24T09:44:42.279Z,18.33
2018-02-24T09:47:09.778Z,18.63
2018-02-24T09:49:37.281Z,20.30
2018-02-24T09:52:04.763Z,16.50
2018-02-24T09:54:32.263Z,17.37
2018-02-24T09:57:12.429Z,17.53
2018-02-24T09:59:42.643Z,19.17
2018-02-24T10:02:10.169Z,17.73
2018-02-24T10:04:37.682Z,16.93
2018-02-24T10:07:05.163Z,15.53
2018-02-24T10:09:32.668Z,19.03
2018-02-24T10:12:00.188Z,15.53
2018-02-24T10:14:27.688Z,16.97
2018-02-24T10:16:55.976Z,16.70
2018-02-24T10:19:35.772Z,13.67
2018-02-24T10:22:03.256Z,14.10
2018-02-24T10:27:28.609Z,13.13
2018-02-24T10:29:56.136Z,9.90
2018-02-24T10:32:24.387Z,10.30
2018-02-24T10:34:51.964Z,10.37
2018-02-24T10:37:19.473Z,12.40
2018-02-24T10:39:47.756Z,12.03
2018-02-24T10:42:16.016Z,15.83
2018-02-24T10:44:43.556Z,12.80
2018-02-24T10:47:11.065Z,10.40
2018-02-24T10:49:38.531Z,7.70
2018-02-24T10:52:06.062Z,9.43
2018-02-24T10:54:33.544Z,7.93
2018-02-24T10:57:01.053Z,8.80
2018-02-24T10:59:28.527Z,8.37
2018-02-24T11:01:56.027Z,9.60
2018-02-24T11:04:23.506Z,9.80
2018-02-24T11:06:51.907Z,10.37
2018-02-24T11:09:19.389Z,8.97
2018-02-24T11:11:46.892Z,8.60
2018-02-24T11:14:14.374Z,9.70
2018-02-24T11:16:41.892Z,8.57
2018-02-24T11:19:09.374Z,7.80
2018-02-24T11:21:36.899Z,10.23
2018-02-24T11:24:04.400Z,9.70
2018-02-24T11:26:31.911Z,8.87
2018-02-24T11:29:00.189Z,9.47
2018-02-24T11:31:27.724Z,12.10
2018-02-24T11:33:55.244Z,12.70
2018-02-24T11:36:22.749Z,11.27
2018-02-24T11:38:50.228Z,9.07
2018-02-24T11:41:17.732Z,11.10
2018-02-24T11:43:45.211Z,10.93
2018-02-24T11:46:12.720Z,10.00
2018-02-24T11:48:40.960Z,11.33
2018-02-24T11:51:21.279Z,15.20
2018-02-24T11:53:48.767Z,10.20
2018-02-24T11:56:16.263Z,9.57
2018-02-24T11:58:43.750Z,10.47
2018-02-24T12:01:11.248Z,9.50
2018-02-24T12:03:39.976Z,7.53
2018-02-24T12:06:07.481Z,10.90
2018-02-24T12:08:34.971Z,11.60
2018-02-24T12:11:02.471Z,11.50
2018-02-24T12:13:30.727Z,8.40
2018-02-24T12:15:58.232Z,9.73
2018-02-24T12:18:25.716Z,14.53
2018-02-24T12:20:53.210Z,11.20
2018-02-24T12:23:20.690Z,13.00
2018-02-24T12:25:48.192Z,14.77
2018-02-24T12:28:15.684Z,12.67
2018-02-24T12:30:43.187Z,10.60
2018-02-24T12:33:10.678Z,11.77
2018-02-24T12:35:38.183Z,12.63
2018-02-24T12:38:06.432Z,13.27
2018-02-24T12:40:33.939Z,10.80
2018-02-24T12:43:02.183Z,10.30
2018-02-24T12:45:29.684Z,11.17
2018-02-24T12:47:57.176Z,11.83
2018-02-24T12:50:25.443Z,11.17
2018-02-24T12:52:52.927Z,14.80
2018-02-24T12:55:21.198Z,12.30
2018-02-24T12:57:48.685Z,13.13
2018-02-24T13:00:16.955Z,11.80
2018-02-24T13:02:44.442Z,11.27
2018-02-24T13:05:12.681Z,12.00
2018-02-24T13:07:40.179Z,14.63
2018-02-24T13:10:07.720Z,12.13
2018-02-24T13:12:35.267Z,12.70
2018-02-24T13:15:02.743Z,12.00
2018-02-24T13:17:30.248Z,12.60
2018-02-24T13:19:57.784Z,12.53
2018-02-24T13:22:26.015Z,13.10
2018-02-24T13:24:53.497Z,14.70
2018-02-24T13:27:20.999Z,11.67
2018-02-24T13:29:48.511Z,11.60
2018-02-24T13:32:16.023Z,16.10
2018-02-24T13:34:44.366Z,11.07
2018-02-24T13:37:11.886Z,11.13
2018-02-24T13:39:40.139Z,13.27
2018-02-24T13:42:07.652Z,12.87
2018-02-24T13:44:35.130Z,17.17
2018-02-24T13:47:02.636Z,14.50
2018-02-24T13:49:30.111Z,12.33
2018-02-24T13:51:57.618Z,11.83
2018-02-24T13:54:25.867Z,11.40
2018-02-24T13:56:53.378Z,14.20
2018-02-24T13:59:21.631Z,13.30
2018-02-24T14:01:49.140Z,10.23
2018-02-24T14:04:17.393Z,11.80
2018-02-24T14:06:44.897Z,12.00
2018-02-24T14:09:13.153Z,12.33
2018-02-24T14:11:40.655Z,13.30
2018-02-24T14:14:08.897Z,10.00
2018-02-24T14:16:37.394Z,11.17
2018-02-24T14:19:04.879Z,13.57
2018-02-24T14:21:32.381Z,11.50
2018-02-24T14:23:59.862Z,12.93
2018-02-24T14:26:27.367Z,12.50
2018-02-24T14:28:54.846Z,11.23
2018-02-24T14:31:24.363Z,10.53
2018-02-24T14:33:57.772Z,14.90
2018-02-24T14:36:25.270Z,9.47
2018-02-24T14:38:54.753Z,9.53
2018-02-24T14:41:22.253Z,11.33
2018-02-24T14:43:49.744Z,11.17
2018-02-24T14:46:18.012Z,11.13
2018-02-24T14:48:45.494Z,11.50
2018-02-24T14:51:13.751Z,15.03
2018-02-24T14:53:41.232Z,12.60
2018-02-24T14:56:08.743Z,10.43
2018-02-24T14:58:36.242Z,11.43
2018-02-24T15:01:03.752Z,10.27
2018-02-24T15:03:31.226Z,8.63
2018-02-24T15:05:59.492Z,11.63
2018-02-24T15:08:27.968Z,11.80
2018-02-24T15:10:55.467Z,10.33
2018-02-24T15:13:22.966Z,9.43
2018-02-24T15:15:51.236Z,10.53
2018-02-24T15:18:18.715Z,10.00
2018-02-24T15:20:46.998Z,14.97
2018-02-24T15:23:15.349Z,16.00
2018-02-24T15:25:42.847Z,10.30
2018-02-24T15:28:10.360Z,12.60
2018-02-24T15:30:37.839Z,10.90
2018-02-24T15:33:05.348Z,10.87
2018-02-24T15:35:34.746Z,12.93
2018-02-24T15:38:02.254Z,16.73
2018-02-24T15:40:30.500Z,14.53
2018-02-24T15:42:58.012Z,12.23
2018-02-24T15:45:25.496Z,13.53
2018-02-24T15:47:53.008Z,16.27
2018-02-24T15:50:20.500Z,12.40
2018-02-24T15:52:48.008Z,13.70
2018-02-24T15:55:15.488Z,11.80
2018-02-24T15:57:42.987Z,14.57
2018-02-24T16:00:10.485Z,10.80
2018-02-24T16:02:37.999Z,14.00
2018-02-24T16:05:06.415Z,13.10
2018-02-24T16:07:33.928Z,12.70
2018-02-24T16:10:01.409Z,12.13
2018-02-24T16:12:29.667Z,14.77
2018-02-24T16:14:57.152Z,13.33
2018-02-24T16:17:25.442Z,12.20
2018-02-24T16:19:52.932Z,11.20
2018-02-24T16:22:21.206Z,12.70
2018-02-24T16:24:49.464Z,13.10
2018-02-24T16:27:16.964Z,11.77
2018-02-24T16:29:44.442Z,10.80
2018-02-24T16:32:11.945Z,13.00
2018-02-24T16:34:39.437Z,13.67
2018-02-24T16:37:06.937Z,12.83
2018-02-24T16:39:34.424Z,16.23
2018-02-24T16:42:01.924Z,14.17
2018-02-24T16:44:29.416Z,14.73
2018-02-24T16:46:56.920Z,12.87
2018-02-24T16:49:24.406Z,11.83
2018-02-24T16:51:52.681Z,13.10
2018-02-24T16:54:20.171Z,14.33
2018-02-24T16:56:48.439Z,14.97
2018-02-24T16:59:15.924Z,12.97
2018-02-24T17:01:44.193Z,11.57
2018-02-24T17:04:11.674Z,13.23
2018-02-24T17:06:39.944Z,10.23
2018-02-24T17:09:07.450Z,13.43
2018-02-24T17:11:34.952Z,11.70
2018-02-24T17:14:02.434Z,10.90
2018-02-24T17:16:29.952Z,13.07
2018-02-24T17:18:58.191Z,14.70
2018-02-24T17:21:25.696Z,11.90
2018-02-24T17:23:53.952Z,12.37
2018-02-24T17:26:21.440Z,12.00
2018-02-24T17:28:48.947Z,11.10
2018-02-24T17:31:16.427Z,12.90
2018-02-24T17:33:43.936Z,12.70
2018-02-24T17:36:11.440Z,11.10
2018-02-24T17:38:39.727Z,13.83
2018-02-24T17:41:07.986Z,14.43
2018-02-24T17:43:35.484Z,14.30
2018-02-24T17:46:02.959Z,10.30
2018-02-24T17:48:31.228Z,11.50
2018-02-24T17:50:58.708Z,12.87
2018-02-24T17:53:26.216Z,12.90
2018-02-24T17:55:53.709Z,12.57
2018-02-24T17:58:21.210Z,10.70
2018-02-24T18:00:48.692Z,10.60
2018-02-24T18:03:16.965Z,13.67
2018-02-24T18:05:44.451Z,11.13
2018-02-24T18:08:11.968Z,13.20
2018-02-24T18:10:40.202Z,10.20
2018-02-24T18:13:07.708Z,11.00
2018-02-24T18:15:35.183Z,16.03
2018-02-24T18:18:02.684Z,10.67
2018-02-24T18:20:30.164Z,14.73
2018-02-24T18:22:57.697Z,10.00
2018-02-24T18:25:25.943Z,12.10
2018-02-24T18:27:53.444Z,9.80
2018-02-24T18:30:20.932Z,15.07
2018-02-24T18:32:49.212Z,10.90
2018-02-24T18:35:16.694Z,12.33
2018-02-24T18:37:44.203Z,12.33
2018-02-24T18:40:11.728Z,14.30
2018-02-24T18:42:39.248Z,9.67
2018-02-24T18:45:06.735Z,11.23
2018-02-24T18:47:35.015Z,11.03
2018-02-24T18:50:03.270Z,9.90
2018-02-24T18:52:30.785Z,8.43
2018-02-24T18:54:59.031Z,11.83
2018-02-24T18:57:26.532Z,9.93
2018-02-24T18:59:54.012Z,10.80
2018-02-24T19:02:22.280Z,8.43
2018-02-24T19:04:50.543Z,12.73
2018-02-24T19:07:18.045Z,8.70
2018-02-24T19:09:45.525Z,9.63
2018-02-24T19:12:13.792Z,9.10
2018-02-24T19:14:41.268Z,5.70
2018-02-24T19:17:08.784Z,5.73
2018-02-24T19:19:36.288Z,10.00
2018-02-24T19:22:03.779Z,8.73
2018-02-24T19:24:31.256Z,7.60
2018-02-24T19:26:58.764Z,10.13
2018-02-24T19:29:26.245Z,4.67
2018-02-24T19:31:53.735Z,9.73
2018-02-24T19:34:21.235Z,7.97
2018-02-24T19:36:49.683Z,6.80
2018-02-24T19:39:17.180Z,5.83
2018-02-24T19:41:44.655Z,9.17
2018-02-24T19:44:12.157Z,5.53
2018-02-24T19:46:40.404Z,7.63
2018-02-24T19:49:07.900Z,5.87
2018-02-24T19:51:36.144Z,5.70
2018-02-24T19:54:03.639Z,5.40
2018-02-24T19:56:31.146Z,5.17
2018-02-24T19:58:59.419Z,3.77
2018-02-24T20:01:27.688Z,5.50
2018-02-24T20:03:55.204Z,4.27
2018-02-24T20:06:22.683Z,3.63
2018-02-24T20:08:50.187Z,4.30
2018-02-24T20:11:17.690Z,3.27
2018-02-24T20:13:45.960Z,4.43
2018-02-24T20:16:13.439Z,6.37
2018-02-24T20:18:40.941Z,3.33
2018-02-24T20:21:08.424Z,4.37
2018-02-24T20:23:35.932Z,3.83
2018-02-24T20:26:03.405Z,3.70
2018-02-24T20:28:30.902Z,5.17
2018-02-24T20:30:59.201Z,3.40
2018-02-24T20:33:27.464Z,12.13
2018-02-24T20:35:54.945Z,5.23
2018-02-24T20:38:23.212Z,4.23
2018-02-24T20:40:50.701Z,3.23
2018-02-24T20:43:18.980Z,4.70
2018-02-24T20:45:46.456Z,5.67
2018-02-24T20:48:13.962Z,3.90
2018-02-24T20:50:41.459Z,4.67
2018-02-24T20:53:08.962Z,4.80
2018-02-24T20:55:36.451Z,3.50
2018-02-24T20:58:04.719Z,5.70
2018-02-24T21:00:32.194Z,4.20
2018-02-24T21:03:00.461Z,2.97
2018-02-24T21:05:27.952Z,5.53
2018-02-24T21:07:55.447Z,4.47
2018-02-24T21:10:22.920Z,3.13
2018-02-24T21:12:50.434Z,3.70
2018-02-24T21:15:17.915Z,7.47
2018-02-24T21:17:45.410Z,2.77
2018-02-24T21:20:13.656Z,3.37
2018-02-24T21:22:41.163Z,3.07
2018-02-24T21:25:08.643Z,3.23
2018-02-24T21:27:36.908Z,4.60
2018-02-24T21:30:04.396Z,6.10
2018-02-24T21:32:32.661Z,5.03
2018-02-24T21:35:00.209Z,3.20
2018-02-24T21:37:28.428Z,4.10
2018-02-24T21:39:55.920Z,3.10
2018-02-24T21:42:24.172Z,5.40
2018-02-24T21:44:51.676Z,5.70
2018-02-24T21:47:19.940Z,9.67
2018-02-24T21:49:47.447Z,6.17
2018-02-24T21:52:14.919Z,6.00
2018-02-24T21:54:42.419Z,5.00
2018-02-24T21:57:09.910Z,4.23
2018-02-24T21:59:37.416Z,4.10
2018-02-24T22:02:06.660Z,5.07
2018-02-24T22:04:34.166Z,5.00
2018-02-24T22:07:01.664Z,5.10
2018-02-24T22:09:29.949Z,3.43
2018-02-24T22:11:58.203Z,5.00
2018-02-24T22:14:25.692Z,7.33
2018-02-24T22:16:53.189Z,5.30
2018-02-24T22:19:21.451Z,5.97
2018-02-24T22:21:48.932Z,4.77
2018-02-24T22:24:17.194Z,4.50
2018-02-24T22:26:44.680Z,5.87
2018-02-24T22:29:12.185Z,5.57
2018-02-24T22:31:39.683Z,9.43
2018-02-24T22:34:07.178Z,6.70
2018-02-24T22:36:34.667Z,8.90
2018-02-24T22:39:02.943Z,6.83
2018-02-24T22:41:30.424Z,6.33
2018-02-24T22:43:58.695Z,5.97
2018-02-24T22:46:26.183Z,6.20
2018-02-24T22:48:59.319Z,9.00
2018-02-24T22:51:26.812Z,8.83
2018-02-24T22:53:54.327Z,3.87
2018-02-24T22:56:22.595Z,4.17
2018-02-24T22:58:50.103Z,5.10
2018-02-24T23:01:18.351Z,6.80
2018-02-24T23:03:45.851Z,6.93
2018-02-24T23:06:14.100Z,6.40
2018-02-24T23:08:41.603Z,6.60
2018-02-24T23:11:09.086Z,7.33
2018-02-24T23:13:36.608Z,5.77
2018-02-24T23:16:04.096Z,7.93
2018-02-24T23:18:31.596Z,6.90
2018-02-24T23:20:59.854Z,4.90
2018-02-24T23:23:27.356Z,6.80
2018-02-24T23:25:55.608Z,6.27
2018-02-24T23:28:23.112Z,6.10
2018-02-24T23:30:51.364Z,5.37
2018-02-24T23:33:18.870Z,7.10
2018-02-24T23:35:47.120Z,5.50
2018-02-24T23:38:14.619Z,6.60
2018-02-24T23:40:42.103Z,6.90
2018-02-24T23:43:10.380Z,7.80
2018-02-24T23:45:38.637Z,6.10
2018-02-24T23:48:06.138Z,5.60
2018-02-24T23:50:34.382Z,7.23
2018-02-24T23:53:02.632Z,7.30
2018-02-24T23:55:30.127Z,7.70
2018-02-24T23:57:57.620Z,6.60
